Aviation Digital Data Service (ADDS)

Output produced by METARs form (0434 UTC 14 December 2017)
found at http://aviationweather.gov/adds/metars/
 
KISP 140242Z 1403/1424 26012KT P6SM SCT070 BKN100 
     FM140600 26011G19KT 2SM -SN BKN035 OVC100 
     FM140900 VRB05KT 1SM -SN OVC013 
     FM141100 VRB04KT 1SM -SN OVC010 
     TEMPO 1411/1413 1/2SM SN BKN005 
     FM141600 32009KT P6SM BKN012 
     FM141700 31010KT P6SM BKN015 
     FM141800 31011KT P6SM SCT021 
     FM141900 31014G22KT P6SM SCT060